createdAt,value
2023-04-01T00:05:11.608Z,75.70
2023-04-01T00:15:11.808Z,74.15
2023-04-01T00:25:12.043Z,75.52
2023-04-01T00:35:12.374Z,75.08
2023-04-01T00:45:12.419Z,76.14
2023-04-01T00:55:12.608Z,76.45
2023-04-01T01:05:12.877Z,75.63
2023-04-01T01:15:13.083Z,73.23
2023-04-01T01:25:13.306Z,74.05
2023-04-01T01:35:13.511Z,72.92
2023-04-01T01:45:13.735Z,73.64
2023-04-01T01:55:13.930Z,73.44
2023-04-01T02:05:14.188Z,74.26
2023-04-01T02:15:14.381Z,78.64
2023-04-01T02:25:14.580Z,78.44
2023-04-01T02:35:14.823Z,78.23
2023-04-01T02:45:15.010Z,77.00
2023-04-01T02:55:15.225Z,74.29
2023-04-01T03:05:15.465Z,73.16
2023-04-01T03:15:15.724Z,70.01
2023-04-01T03:25:15.906Z,74.40
2023-04-01T03:35:16.118Z,79.30
2023-04-01T03:45:16.301Z,78.58
2023-04-01T03:55:16.596Z,79.09
2023-04-01T04:05:16.601Z,79.95
2023-04-01T04:15:16.806Z,81.02
2023-04-01T04:25:17.011Z,82.25
2023-04-01T04:35:17.205Z,83.22
2023-04-01T04:45:17.419Z,79.44
2023-04-01T04:55:17.598Z,79.03
2023-04-01T05:05:17.793Z,80.19
2023-04-01T05:15:18.010Z,77.69
2023-04-01T05:25:18.227Z,80.16
2023-04-01T05:35:18.426Z,81.33
2023-04-01T05:45:18.636Z,80.30
2023-04-01T05:55:18.857Z,78.61
2023-04-01T06:05:19.062Z,83.25
2023-04-01T06:15:19.278Z,82.46
2023-04-01T06:25:19.699Z,78.58
2023-04-01T06:35:19.710Z,78.58
2023-04-01T06:45:19.936Z,79.05
2023-04-01T06:55:22.388Z,76.18
2023-04-01T07:05:20.362Z,78.61
2023-04-01T07:15:20.567Z,76.86
2023-04-01T07:25:20.762Z,79.19
2023-04-01T07:35:20.947Z,78.09
2023-04-01T07:45:21.164Z,78.30
2023-04-01T07:55:21.388Z,77.99
2023-04-01T08:05:21.573Z,77.85
2023-04-01T08:15:21.753Z,78.88
2023-04-01T08:25:21.961Z,78.16
2023-04-01T08:35:22.157Z,77.44
2023-04-01T08:45:22.356Z,77.37
2023-04-01T08:55:22.565Z,78.50
2023-04-01T09:05:22.758Z,76.68
2023-04-01T09:15:22.945Z,76.17
2023-04-01T09:25:23.225Z,68.79
2023-04-01T09:35:23.244Z,74.19
2023-04-01T09:45:23.446Z,73.50
2023-04-01T09:55:23.657Z,73.57
2023-04-01T10:05:23.912Z,74.36
2023-04-01T10:15:24.077Z,72.55
2023-04-01T10:25:24.280Z,73.16
2023-04-01T10:35:24.515Z,72.14
2023-04-01T10:45:24.768Z,71.93
2023-04-01T10:55:24.777Z,71.18
2023-04-01T11:05:24.979Z,72.11
2023-04-01T11:15:25.229Z,71.12
2023-04-01T11:25:25.414Z,67.94
2023-04-01T11:35:25.669Z,66.78
2023-04-01T11:45:25.859Z,66.55
2023-04-01T11:55:26.067Z,64.17
2023-04-01T12:05:26.271Z,64.45
2023-04-01T12:15:26.458Z,62.81
2023-04-01T12:25:26.656Z,63.70
2023-04-01T12:35:26.881Z,62.92
2023-04-01T12:45:27.043Z,64.34
2023-04-01T12:55:27.229Z,64.08
2023-04-01T13:05:27.427Z,60.12
2023-04-01T13:15:27.695Z,60.00
2023-04-01T13:25:27.896Z,59.89
2023-04-01T13:35:28.095Z,60.51
2023-04-01T13:45:28.306Z,61.12
2023-04-01T13:55:28.508Z,60.82
2023-04-01T14:05:42.098Z,60.53
2023-04-01T14:15:29.954Z,60.85
2023-04-01T14:25:29.157Z,61.46
2023-04-01T14:35:29.420Z,62.17
2023-04-01T14:45:29.646Z,60.30
2023-04-01T14:55:29.808Z,59.80
2023-04-01T15:05:30.130Z,60.00
2023-04-01T15:15:30.141Z,60.48
2023-04-01T15:25:30.326Z,59.05
2023-04-01T15:35:30.552Z,59.72
2023-04-01T15:45:30.784Z,62.68
2023-04-01T15:55:31.132Z,63.49
2023-04-01T16:05:31.427Z,63.63
2023-04-01T16:15:31.701Z,67.75
2023-04-01T16:25:31.379Z,78.66
2023-04-01T16:35:31.629Z,77.57
2023-04-01T16:45:31.845Z,81.71
2023-04-01T16:55:32.018Z,84.41
2023-04-01T17:05:32.232Z,83.90
2023-04-01T17:15:32.736Z,83.01
2023-04-01T17:25:32.656Z,80.35
2023-04-01T17:35:32.995Z,80.00
2023-04-01T17:45:33.036Z,80.51
2023-04-01T17:55:33.506Z,82.64
2023-04-01T18:05:34.350Z,81.71
2023-04-01T18:15:33.849Z,78.70
2023-04-01T18:25:38.025Z,80.63
2023-04-01T18:35:34.228Z,80.73
2023-04-01T18:45:34.362Z,83.29
2023-04-01T18:55:34.458Z,85.94
2023-04-01T19:05:34.558Z,85.63
2023-04-01T19:15:34.731Z,85.68
2023-04-01T19:25:34.841Z,85.68
2023-04-01T19:35:34.995Z,84.75
2023-04-01T19:45:35.213Z,87.36
2023-04-01T19:55:35.605Z,85.36
2023-04-01T20:05:35.644Z,85.82
2023-04-01T20:15:35.992Z,87.40
2023-04-01T20:25:35.754Z,86.85
2023-04-01T20:35:36.273Z,86.58
2023-04-01T20:45:36.502Z,86.37
2023-04-01T20:55:36.347Z,87.81
2023-04-01T21:05:36.589Z,84.23
2023-04-01T21:15:37.056Z,86.79
2023-04-01T21:25:36.989Z,88.43
2023-04-01T21:35:37.199Z,88.17
2023-04-01T21:45:37.063Z,85.86
2023-04-01T21:55:37.247Z,87.85
2023-04-01T22:05:37.466Z,87.85
2023-04-01T22:15:37.662Z,87.96
2023-04-01T22:25:37.866Z,88.68
2023-04-01T22:35:38.279Z,86.27
2023-04-01T22:45:38.562Z,84.72
2023-04-01T22:55:38.436Z,84.79
2023-04-01T23:05:39.681Z,86.37
2023-04-01T23:15:39.189Z,86.06
2023-04-01T23:25:39.021Z,86.37
2023-04-01T23:35:39.238Z,86.79
2023-04-01T23:45:39.440Z,86.58
2023-04-01T23:55:39.673Z,87.54
